sensor_id;sensor_type;location;lat;lon;timestamp;pressure;altitude;pressure_sealevel;temperature;humidity
60817;BME280;51921;51.518;-3.188;2022-11-15T00:02:23;99664.87;;;8.11;100.00
60817;BME280;51921;51.518;-3.188;2022-11-15T00:04:48;99657.69;;;8.40;100.00
60817;BME280;51921;51.518;-3.188;2022-11-15T00:07:14;99649.36;;;8.24;100.00
60817;BME280;51921;51.518;-3.188;2022-11-15T00:09:39;99646.97;;;9.35;100.00
60817;BME280;51921;51.518;-3.188;2022-11-15T00:12:05;99638.28;;;8.82;100.00
60817;BME280;51921;51.518;-3.188;2022-11-15T00:14:30;99635.08;;;9.25;100.00
60817;BME280;51921;51.518;-3.188;2022-11-15T00:16:56;99632.53;;;9.23;100.00
60817;BME280;51921;51.518;-3.188;2022-11-15T00:19:21;99622.85;;;8.11;100.00
60817;BME280;51921;51.518;-3.188;2022-11-15T00:21:46;99620.27;;;9.02;100.00
60817;BME280;51921;51.518;-3.188;2022-11-15T00:24:12;99610.36;;;8.38;100.00
60817;BME280;51921;51.518;-3.188;2022-11-15T00:26:37;99609.10;;;8.85;100.00
60817;BME280;51921;51.518;-3.188;2022-11-15T00:29:03;99604.01;;;8.46;100.00
60817;BME280;51921;51.518;-3.188;2022-11-15T00:31:28;99600.19;;;8.88;100.00
60817;BME280;51921;51.518;-3.188;2022-11-15T00:33:54;99591.79;;;8.46;100.00
60817;BME280;51921;51.518;-3.188;2022-11-15T00:36:19;99585.05;;;8.77;100.00
60817;BME280;51921;51.518;-3.188;2022-11-15T00:38:45;99581.47;;;8.38;100.00
60817;BME280;51921;51.518;-3.188;2022-11-15T00:41:10;99573.65;;;8.02;100.00
60817;BME280;51921;51.518;-3.188;2022-11-15T00:43:36;99575.78;;;7.59;100.00
60817;BME280;51921;51.518;-3.188;2022-11-15T00:46:01;99567.96;;;8.02;100.00
60817;BME280;51921;51.518;-3.188;2022-11-15T00:48:27;99554.14;;;8.19;100.00
60817;BME280;51921;51.518;-3.188;2022-11-15T00:50:52;99544.45;;;7.98;100.00
60817;BME280;51921;51.518;-3.188;2022-11-15T00:53:17;99541.20;;;8.39;100.00
60817;BME280;51921;51.518;-3.188;2022-11-15T00:55:42;99526.34;;;9.08;100.00
60817;BME280;51921;51.518;-3.188;2022-11-15T00:58:08;99516.07;;;8.70;100.00
60817;BME280;51921;51.518;-3.188;2022-11-15T01:00:33;99513.46;;;8.45;100.00
60817;BME280;51921;51.518;-3.188;2022-11-15T01:03:00;99502.98;;;9.12;100.00
60817;BME280;51921;51.518;-3.188;2022-11-15T01:05:24;99494.24;;;9.91;100.00
60817;BME280;51921;51.518;-3.188;2022-11-15T01:07:51;99485.99;;;9.56;100.00
60817;BME280;51921;51.518;-3.188;2022-11-15T01:10:15;99483.93;;;8.58;100.00
60817;BME280;51921;51.518;-3.188;2022-11-15T01:12:40;99481.57;;;8.01;100.00
60817;BME280;51921;51.518;-3.188;2022-11-15T01:15:06;99480.52;;;8.22;100.00
60817;BME280;51921;51.518;-3.188;2022-11-15T01:17:31;99468.85;;;7.65;100.00
60817;BME280;51921;51.518;-3.188;2022-11-15T01:19:57;99449.73;;;8.33;100.00
60817;BME280;51921;51.518;-3.188;2022-11-15T01:22:22;99437.52;;;7.96;100.00
60817;BME280;51921;51.518;-3.188;2022-11-15T01:24:49;99432.14;;;7.53;100.00
60817;BME280;51921;51.518;-3.188;2022-11-15T01:27:13;99430.99;;;7.52;100.00
60817;BME280;51921;51.518;-3.188;2022-11-15T01:29:38;99428.43;;;8.29;100.00
60817;BME280;51921;51.518;-3.188;2022-11-15T01:32:04;99423.67;;;7.97;100.00
60817;BME280;51921;51.518;-3.188;2022-11-15T01:34:29;99419.28;;;7.95;100.00
60817;BME280;51921;51.518;-3.188;2022-11-15T01:36:55;99416.10;;;7.69;100.00
60817;BME280;51921;51.518;-3.188;2022-11-15T01:39:20;99415.28;;;8.03;100.00
60817;BME280;51921;51.518;-3.188;2022-11-15T01:41:45;99401.44;;;8.07;100.00
60817;BME280;51921;51.518;-3.188;2022-11-15T01:44:34;99396.19;;;8.15;100.00
60817;BME280;51921;51.518;-3.188;2022-11-15T01:46:38;99389.49;;;7.85;100.00
60817;BME280;51921;51.518;-3.188;2022-11-15T01:49:04;99388.51;;;7.19;100.00
60817;BME280;51921;51.518;-3.188;2022-11-15T01:51:29;99372.68;;;7.92;100.00
60817;BME280;51921;51.518;-3.188;2022-11-15T01:53:56;99378.33;;;7.20;100.00
60817;BME280;51921;51.518;-3.188;2022-11-15T01:56:21;99378.31;;;7.51;100.00
60817;BME280;51921;51.518;-3.188;2022-11-15T01:58:44;99363.11;;;8.18;100.00
60817;BME280;51921;51.518;-3.188;2022-11-15T02:01:08;99356.34;;;7.86;100.00
60817;BME280;51921;51.518;-3.188;2022-11-15T02:03:40;99355.02;;;7.69;100.00
60817;BME280;51921;51.518;-3.188;2022-11-15T02:05:59;99346.67;;;8.41;100.00
60817;BME280;51921;51.518;-3.188;2022-11-15T02:08:24;99345.11;;;7.56;100.00
60817;BME280;51921;51.518;-3.188;2022-11-15T02:10:50;99333.17;;;7.85;100.00
60817;BME280;51921;51.518;-3.188;2022-11-15T02:13:16;99317.34;;;8.16;100.00
60817;BME280;51921;51.518;-3.188;2022-11-15T02:15:48;99301.11;;;8.07;100.00
60817;BME280;51921;51.518;-3.188;2022-11-15T02:18:12;99290.68;;;8.17;100.00
60817;BME280;51921;51.518;-3.188;2022-11-15T02:20:41;99280.97;;;8.01;100.00
60817;BME280;51921;51.518;-3.188;2022-11-15T02:23:16;99275.85;;;7.53;100.00
60817;BME280;51921;51.518;-3.188;2022-11-15T02:25:37;99268.75;;;8.25;100.00
60817;BME280;51921;51.518;-3.188;2022-11-15T02:30:20;99260.11;;;8.22;100.00
60817;BME280;51921;51.518;-3.188;2022-11-15T02:32:45;99252.51;;;8.12;100.00
60817;BME280;51921;51.518;-3.188;2022-11-15T02:35:12;99245.23;;;8.39;100.00
60817;BME280;51921;51.518;-3.188;2022-11-15T02:37:34;99244.02;;;8.13;100.00
60817;BME280;51921;51.518;-3.188;2022-11-15T02:40:01;99242.23;;;7.63;100.00
60817;BME280;51921;51.518;-3.188;2022-11-15T02:42:25;99229.35;;;7.85;100.00
60817;BME280;51921;51.518;-3.188;2022-11-15T02:44:47;99227.19;;;8.04;100.00
60817;BME280;51921;51.518;-3.188;2022-11-15T02:47:14;99208.82;;;7.78;100.00
60817;BME280;51921;51.518;-3.188;2022-11-15T02:49:38;99210.58;;;8.07;100.00
60817;BME280;51921;51.518;-3.188;2022-11-15T02:52:02;99201.76;;;8.50;100.00
60817;BME280;51921;51.518;-3.188;2022-11-15T02:54:30;99195.80;;;8.19;100.00
60817;BME280;51921;51.518;-3.188;2022-11-15T02:56:58;99194.41;;;8.83;100.00
60817;BME280;51921;51.518;-3.188;2022-11-15T03:01:55;99178.57;;;7.66;100.00
60817;BME280;51921;51.518;-3.188;2022-11-15T03:04:20;99177.70;;;7.65;100.00
60817;BME280;51921;51.518;-3.188;2022-11-15T03:06:40;99165.51;;;7.56;100.00
60817;BME280;51921;51.518;-3.188;2022-11-15T03:09:05;99168.95;;;7.88;100.00
60817;BME280;51921;51.518;-3.188;2022-11-15T03:11:28;99158.82;;;7.77;100.00
60817;BME280;51921;51.518;-3.188;2022-11-15T03:13:58;99157.94;;;7.34;100.00
60817;BME280;51921;51.518;-3.188;2022-11-15T03:16:21;99153.55;;;7.98;100.00
60817;BME280;51921;51.518;-3.188;2022-11-15T03:18:46;99144.42;;;7.33;100.00
60817;BME280;51921;51.518;-3.188;2022-11-15T03:21:09;99136.25;;;7.94;100.00
60817;BME280;51921;51.518;-3.188;2022-11-15T03:23:35;99137.56;;;7.84;100.00
60817;BME280;51921;51.518;-3.188;2022-11-15T03:26:00;99133.80;;;8.12;100.00
60817;BME280;51921;51.518;-3.188;2022-11-15T03:28:30;99129.10;;;7.64;100.00
60817;BME280;51921;51.518;-3.188;2022-11-15T03:30:52;99126.65;;;7.73;100.00
60817;BME280;51921;51.518;-3.188;2022-11-15T03:33:16;99116.71;;;7.67;100.00
60817;BME280;51921;51.518;-3.188;2022-11-15T03:35:43;99118.30;;;7.45;100.00
60817;BME280;51921;51.518;-3.188;2022-11-15T03:38:10;99117.31;;;7.21;100.00
60817;BME280;51921;51.518;-3.188;2022-11-15T03:40:36;99112.37;;;7.17;100.00
60817;BME280;51921;51.518;-3.188;2022-11-15T03:43:01;99108.92;;;7.40;100.00
60817;BME280;51921;51.518;-3.188;2022-11-15T03:45:25;99111.03;;;7.35;100.00
60817;BME280;51921;51.518;-3.188;2022-11-15T03:47:51;99095.15;;;7.23;100.00
60817;BME280;51921;51.518;-3.188;2022-11-15T03:50:15;99101.95;;;7.92;100.00
60817;BME280;51921;51.518;-3.188;2022-11-15T03:52:40;99087.70;;;8.33;100.00
60817;BME280;51921;51.518;-3.188;2022-11-15T03:55:06;99088.70;;;7.52;100.00
60817;BME280;51921;51.518;-3.188;2022-11-15T03:57:29;99087.06;;;7.74;100.00
60817;BME280;51921;51.518;-3.188;2022-11-15T03:59:55;99082.85;;;7.56;100.00
60817;BME280;51921;51.518;-3.188;2022-11-15T04:02:20;99075.56;;;8.04;100.00
60817;BME280;51921;51.518;-3.188;2022-11-15T04:04:45;99070.74;;;7.78;100.00
60817;BME280;51921;51.518;-3.188;2022-11-15T04:07:11;99070.99;;;7.27;100.00
60817;BME280;51921;51.518;-3.188;2022-11-15T04:09:36;99071.42;;;7.94;100.00
60817;BME280;51921;51.518;-3.188;2022-11-15T04:12:02;99059.80;;;8.07;100.00
60817;BME280;51921;51.518;-3.188;2022-11-15T04:14:27;99062.19;;;8.36;100.00
60817;BME280;51921;51.518;-3.188;2022-11-15T04:16:52;99052.73;;;7.79;100.00
60817;BME280;51921;51.518;-3.188;2022-11-15T04:19:18;99048.63;;;7.76;100.00
60817;BME280;51921;51.518;-3.188;2022-11-15T04:21:43;99051.64;;;7.57;100.00
60817;BME280;51921;51.518;-3.188;2022-11-15T04:24:09;99045.95;;;8.44;100.00
60817;BME280;51921;51.518;-3.188;2022-11-15T04:26:34;99050.72;;;7.61;100.00
60817;BME280;51921;51.518;-3.188;2022-11-15T04:29:00;99042.38;;;7.99;100.00
60817;BME280;51921;51.518;-3.188;2022-11-15T04:31:26;99039.44;;;7.86;100.00
60817;BME280;51921;51.518;-3.188;2022-11-15T04:33:51;99034.41;;;8.07;100.00
60817;BME280;51921;51.518;-3.188;2022-11-15T04:36:16;99026.33;;;8.23;100.00
60817;BME280;51921;51.518;-3.188;2022-11-15T04:38:42;99025.09;;;8.66;100.00
60817;BME280;51921;51.518;-3.188;2022-11-15T04:41:07;99016.59;;;8.71;100.00
60817;BME280;51921;51.518;-3.188;2022-11-15T04:43:33;99017.29;;;8.32;100.00
60817;BME280;51921;51.518;-3.188;2022-11-15T04:45:58;99012.51;;;8.03;100.00
60817;BME280;51921;51.518;-3.188;2022-11-15T04:48:23;99022.36;;;8.09;100.00
60817;BME280;51921;51.518;-3.188;2022-11-15T04:50:49;99026.70;;;8.65;100.00
60817;BME280;51921;51.518;-3.188;2022-11-15T04:53:14;99018.34;;;8.48;100.00
60817;BME280;51921;51.518;-3.188;2022-11-15T04:55:40;99003.48;;;8.28;100.00
60817;BME280;51921;51.518;-3.188;2022-11-15T04:58:05;98997.03;;;8.46;100.00
60817;BME280;51921;51.518;-3.188;2022-11-15T05:00:30;98982.72;;;8.30;100.00
60817;BME280;51921;51.518;-3.188;2022-11-15T05:02:56;98980.97;;;7.67;100.00
60817;BME280;51921;51.518;-3.188;2022-11-15T05:05:21;98981.35;;;8.27;100.00
60817;BME280;51921;51.518;-3.188;2022-11-15T05:07:47;98977.40;;;8.55;100.00
60817;BME280;51921;51.518;-3.188;2022-11-15T05:10:12;98966.00;;;8.30;100.00
60817;BME280;51921;51.518;-3.188;2022-11-15T05:12:38;98951.10;;;8.34;100.00
60817;BME280;51921;51.518;-3.188;2022-11-15T05:15:04;98945.11;;;8.55;100.00
60817;BME280;51921;51.518;-3.188;2022-11-15T05:17:29;98939.30;;;8.71;100.00
60817;BME280;51921;51.518;-3.188;2022-11-15T05:19:54;98934.08;;;7.71;100.00
60817;BME280;51921;51.518;-3.188;2022-11-15T05:22:20;98921.83;;;8.69;100.00
60817;BME280;51921;51.518;-3.188;2022-11-15T05:24:45;98911.88;;;8.55;100.00
60817;BME280;51921;51.518;-3.188;2022-11-15T05:27:11;98913.05;;;8.09;100.00
60817;BME280;51921;51.518;-3.188;2022-11-15T05:29:36;98909.74;;;8.22;100.00
60817;BME280;51921;51.518;-3.188;2022-11-15T05:32:03;98895.99;;;8.03;100.00
60817;BME280;51921;51.518;-3.188;2022-11-15T05:34:27;98886.54;;;8.51;100.00
60817;BME280;51921;51.518;-3.188;2022-11-15T05:36:53;98881.86;;;8.67;100.00
60817;BME280;51921;51.518;-3.188;2022-11-15T05:39:18;98877.26;;;8.37;100.00
60817;BME280;51921;51.518;-3.188;2022-11-15T05:41:46;98874.36;;;7.94;100.00
60817;BME280;51921;51.518;-3.188;2022-11-15T05:44:11;98870.00;;;7.90;100.00
60817;BME280;51921;51.518;-3.188;2022-11-15T05:46:35;98864.67;;;8.16;100.00
60817;BME280;51921;51.518;-3.188;2022-11-15T05:49:00;98857.52;;;8.21;100.00
60817;BME280;51921;51.518;-3.188;2022-11-15T05:51:28;98846.42;;;8.30;100.00
60817;BME280;51921;51.518;-3.188;2022-11-15T05:53:51;98839.70;;;7.90;100.00
60817;BME280;51921;51.518;-3.188;2022-11-15T05:56:16;98832.32;;;8.54;100.00
60817;BME280;51921;51.518;-3.188;2022-11-15T05:58:42;98827.72;;;8.60;100.00
60817;BME280;51921;51.518;-3.188;2022-11-15T06:01:06;98824.82;;;8.54;100.00
60817;BME280;51921;51.518;-3.188;2022-11-15T06:03:32;98818.82;;;7.96;100.00
60817;BME280;51921;51.518;-3.188;2022-11-15T06:05:58;98815.98;;;8.46;100.00
60817;BME280;51921;51.518;-3.188;2022-11-15T06:08:23;98805.86;;;9.18;100.00
60817;BME280;51921;51.518;-3.188;2022-11-15T06:10:48;98804.91;;;9.19;100.00
60817;BME280;51921;51.518;-3.188;2022-11-15T06:13:14;98798.89;;;8.48;100.00
60817;BME280;51921;51.518;-3.188;2022-11-15T06:15:39;98784.17;;;8.73;100.00
60817;BME280;51921;51.518;-3.188;2022-11-15T06:18:04;98792.42;;;8.20;100.00
60817;BME280;51921;51.518;-3.188;2022-11-15T06:20:30;98789.66;;;8.23;100.00
60817;BME280;51921;51.518;-3.188;2022-11-15T06:22:57;98783.16;;;8.27;100.00
60817;BME280;51921;51.518;-3.188;2022-11-15T06:25:20;98786.10;;;8.59;100.00
60817;BME280;51921;51.518;-3.188;2022-11-15T06:27:51;98784.96;;;9.24;100.00
60817;BME280;51921;51.518;-3.188;2022-11-15T06:30:11;98786.93;;;8.99;100.00
60817;BME280;51921;51.518;-3.188;2022-11-15T06:32:37;98787.34;;;8.42;100.00
60817;BME280;51921;51.518;-3.188;2022-11-15T06:35:03;98781.97;;;8.74;100.00
60817;BME280;51921;51.518;-3.188;2022-11-15T06:37:28;98779.61;;;8.75;100.00
60817;BME280;51921;51.518;-3.188;2022-11-15T06:39:53;98772.20;;;8.74;100.00
60817;BME280;51921;51.518;-3.188;2022-11-15T06:42:19;98764.63;;;9.09;100.00
60817;BME280;51921;51.518;-3.188;2022-11-15T06:44:44;98760.97;;;8.76;100.00
60817;BME280;51921;51.518;-3.188;2022-11-15T06:47:09;98756.20;;;8.92;100.00
60817;BME280;51921;51.518;-3.188;2022-11-15T06:49:35;98743.43;;;9.08;100.00
60817;BME280;51921;51.518;-3.188;2022-11-15T06:52:00;98731.58;;;9.10;100.00
60817;BME280;51921;51.518;-3.188;2022-11-15T06:54:26;98735.20;;;9.25;100.00
60817;BME280;51921;51.518;-3.188;2022-11-15T06:56:51;98727.72;;;9.11;100.00
60817;BME280;51921;51.518;-3.188;2022-11-15T06:59:17;98727.40;;;8.82;100.00
60817;BME280;51921;51.518;-3.188;2022-11-15T07:01:42;98733.94;;;9.55;100.00
60817;BME280;51921;51.518;-3.188;2022-11-15T07:04:08;98725.78;;;9.64;100.00
60817;BME280;51921;51.518;-3.188;2022-11-15T07:06:33;98723.56;;;9.32;100.00
60817;BME280;51921;51.518;-3.188;2022-11-15T07:08:58;98731.93;;;8.91;100.00
60817;BME280;51921;51.518;-3.188;2022-11-15T07:11:24;98736.32;;;9.06;100.00
60817;BME280;51921;51.518;-3.188;2022-11-15T07:13:49;98732.82;;;9.07;100.00
60817;BME280;51921;51.518;-3.188;2022-11-15T07:16:15;98743.05;;;9.05;100.00
60817;BME280;51921;51.518;-3.188;2022-11-15T07:18:40;98747.48;;;8.73;100.00
60817;BME280;51921;51.518;-3.188;2022-11-15T07:21:07;98752.73;;;8.90;100.00
60817;BME280;51921;51.518;-3.188;2022-11-15T07:23:32;98739.87;;;8.59;100.00
60817;BME280;51921;51.518;-3.188;2022-11-15T07:25:57;98749.79;;;8.27;100.00
60817;BME280;51921;51.518;-3.188;2022-11-15T07:28:22;98746.41;;;8.07;100.00
60817;BME280;51921;51.518;-3.188;2022-11-15T07:30:48;98749.01;;;8.77;100.00
60817;BME280;51921;51.518;-3.188;2022-11-15T07:33:19;98752.99;;;8.77;100.00
60817;BME280;51921;51.518;-3.188;2022-11-15T07:35:38;98751.08;;;8.85;100.00
60817;BME280;51921;51.518;-3.188;2022-11-15T07:38:04;98756.30;;;8.91;100.00
60817;BME280;51921;51.518;-3.188;2022-11-15T07:40:31;98768.64;;;8.08;100.00
60817;BME280;51921;51.518;-3.188;2022-11-15T07:42:59;98773.02;;;8.19;100.00
60817;BME280;51921;51.518;-3.188;2022-11-15T07:45:21;98779.83;;;8.04;100.00
60817;BME280;51921;51.518;-3.188;2022-11-15T07:47:46;98778.30;;;8.28;100.00
60817;BME280;51921;51.518;-3.188;2022-11-15T07:50:11;98784.04;;;8.96;100.00
60817;BME280;51921;51.518;-3.188;2022-11-15T07:52:37;98788.79;;;7.98;100.00
60817;BME280;51921;51.518;-3.188;2022-11-15T07:55:02;98793.54;;;8.92;100.00
60817;BME280;51921;51.518;-3.188;2022-11-15T07:57:28;98783.87;;;8.63;100.00
60817;BME280;51921;51.518;-3.188;2022-11-15T07:59:53;98779.92;;;9.01;100.00
60817;BME280;51921;51.518;-3.188;2022-11-15T08:02:19;98780.52;;;9.09;100.00
60817;BME280;51921;51.518;-3.188;2022-11-15T08:04:44;98782.86;;;9.05;100.00
60817;BME280;51921;51.518;-3.188;2022-11-15T08:07:10;98782.81;;;8.33;100.00
60817;BME280;51921;51.518;-3.188;2022-11-15T08:09:35;98785.26;;;8.46;100.00
60817;BME280;51921;51.518;-3.188;2022-11-15T08:12:00;98787.92;;;8.75;100.00
60817;BME280;51921;51.518;-3.188;2022-11-15T08:14:26;98804.53;;;7.81;100.00
60817;BME280;51921;51.518;-3.188;2022-11-15T08:16:51;98814.20;;;8.42;100.00
60817;BME280;51921;51.518;-3.188;2022-11-15T08:19:17;98816.52;;;8.53;100.00
60817;BME280;51921;51.518;-3.188;2022-11-15T08:21:42;98807.56;;;7.91;100.00
60817;BME280;51921;51.518;-3.188;2022-11-15T08:24:09;98806.82;;;8.47;100.00
60817;BME280;51921;51.518;-3.188;2022-11-15T08:26:33;98804.43;;;7.74;100.00
60817;BME280;51921;51.518;-3.188;2022-11-15T08:28:58;98808.78;;;7.90;100.00
60817;BME280;51921;51.518;-3.188;2022-11-15T08:31:24;98814.12;;;7.42;100.00
60817;BME280;51921;51.518;-3.188;2022-11-15T08:33:49;98819.71;;;7.72;100.00
60817;BME280;51921;51.518;-3.188;2022-11-15T08:36:16;98818.53;;;7.45;100.00
60817;BME280;51921;51.518;-3.188;2022-11-15T08:38:41;98821.01;;;7.85;100.00
60817;BME280;51921;51.518;-3.188;2022-11-15T08:41:07;98811.58;;;8.51;100.00
60817;BME280;51921;51.518;-3.188;2022-11-15T08:43:32;98812.09;;;9.27;100.00
60817;BME280;51921;51.518;-3.188;2022-11-15T08:45:57;98807.09;;;9.19;100.00
60817;BME280;51921;51.518;-3.188;2022-11-15T08:48:22;98784.73;;;9.34;100.00
60817;BME280;51921;51.518;-3.188;2022-11-15T08:50:48;98780.09;;;8.73;100.00
60817;BME280;51921;51.518;-3.188;2022-11-15T08:53:13;98779.09;;;8.61;100.00
60817;BME280;51921;51.518;-3.188;2022-11-15T08:55:40;98779.53;;;8.28;100.00
60817;BME280;51921;51.518;-3.188;2022-11-15T08:58:04;98767.56;;;7.62;100.00
60817;BME280;51921;51.518;-3.188;2022-11-15T09:00:29;98764.17;;;8.58;100.00
60817;BME280;51921;51.518;-3.188;2022-11-15T09:02:55;98761.64;;;8.01;100.00
60817;BME280;51921;51.518;-3.188;2022-11-15T09:05:20;98768.08;;;8.44;100.00
60817;BME280;51921;51.518;-3.188;2022-11-15T09:07:46;98780.99;;;7.65;100.00
60817;BME280;51921;51.518;-3.188;2022-11-15T09:10:11;98788.35;;;8.85;100.00
60817;BME280;51921;51.518;-3.188;2022-11-15T09:12:37;98787.15;;;7.81;100.00
60817;BME280;51921;51.518;-3.188;2022-11-15T09:15:03;98770.19;;;9.44;100.00
60817;BME280;51921;51.518;-3.188;2022-11-15T09:17:28;98758.82;;;8.63;100.00
60817;BME280;51921;51.518;-3.188;2022-11-15T09:19:53;98774.13;;;8.99;100.00
60817;BME280;51921;51.518;-3.188;2022-11-15T09:22:18;98780.97;;;8.50;100.00
60817;BME280;51921;51.518;-3.188;2022-11-15T09:24:44;98772.17;;;8.32;100.00
60817;BME280;51921;51.518;-3.188;2022-11-15T09:27:09;98774.48;;;8.67;100.00
60817;BME280;51921;51.518;-3.188;2022-11-15T09:29:35;98776.22;;;8.71;100.00
60817;BME280;51921;51.518;-3.188;2022-11-15T09:32:00;98775.84;;;9.16;100.00
60817;BME280;51921;51.518;-3.188;2022-11-15T09:34:26;98780.78;;;9.46;100.00
60817;BME280;51921;51.518;-3.188;2022-11-15T09:36:51;98780.81;;;9.07;100.00
60817;BME280;51921;51.518;-3.188;2022-11-15T09:39:17;98779.46;;;9.82;100.00
60817;BME280;51921;51.518;-3.188;2022-11-15T09:41:55;98777.81;;;9.06;100.00
60817;BME280;51921;51.518;-3.188;2022-11-15T09:44:23;98780.04;;;8.99;100.00
60817;BME280;51921;51.518;-3.188;2022-11-15T09:46:41;98789.00;;;8.20;100.00
60817;BME280;51921;51.518;-3.188;2022-11-15T09:48:59;98792.54;;;9.35;100.00
60817;BME280;51921;51.518;-3.188;2022-11-15T09:51:32;98801.62;;;8.59;100.00
60817;BME280;51921;51.518;-3.188;2022-11-15T09:53:56;98792.14;;;8.56;100.00
60817;BME280;51921;51.518;-3.188;2022-11-15T09:56:19;98788.97;;;8.75;100.00
60817;BME280;51921;51.518;-3.188;2022-11-15T09:58:46;98788.57;;;8.50;100.00
60817;BME280;51921;51.518;-3.188;2022-11-15T10:01:10;98774.90;;;9.51;100.00
60817;BME280;51921;51.518;-3.188;2022-11-15T10:03:34;98772.05;;;8.75;100.00
60817;BME280;51921;51.518;-3.188;2022-11-15T10:06:01;98784.46;;;8.89;100.00
60817;BME280;51921;51.518;-3.188;2022-11-15T10:08:32;98783.33;;;9.91;100.00
60817;BME280;51921;51.518;-3.188;2022-11-15T10:10:49;98776.31;;;9.75;100.00
60817;BME280;51921;51.518;-3.188;2022-11-15T10:13:16;98779.39;;;10.21;100.00
60817;BME280;51921;51.518;-3.188;2022-11-15T10:15:39;98782.99;;;10.21;100.00
60817;BME280;51921;51.518;-3.188;2022-11-15T10:18:09;98782.95;;;10.59;100.00
60817;BME280;51921;51.518;-3.188;2022-11-15T10:20:34;98779.55;;;10.93;100.00
60817;BME280;51921;51.518;-3.188;2022-11-15T10:22:58;98776.59;;;11.38;100.00
60817;BME280;51921;51.518;-3.188;2022-11-15T10:25:23;98766.43;;;11.90;100.00
60817;BME280;51921;51.518;-3.188;2022-11-15T10:27:52;98759.56;;;11.13;100.00
60817;BME280;51921;51.518;-3.188;2022-11-15T10:30:14;98749.64;;;11.80;100.00
60817;BME280;51921;51.518;-3.188;2022-11-15T10:32:37;98747.82;;;10.54;100.00
60817;BME280;51921;51.518;-3.188;2022-11-15T10:37:30;98736.08;;;11.31;100.00
60817;BME280;51921;51.518;-3.188;2022-11-15T10:40:04;98739.19;;;11.23;100.00
60817;BME280;51921;51.518;-3.188;2022-11-15T10:42:27;98740.86;;;11.35;100.00
60817;BME280;51921;51.518;-3.188;2022-11-15T10:44:45;98746.19;;;11.18;100.00
60817;BME280;51921;51.518;-3.188;2022-11-15T10:47:21;98741.44;;;12.25;100.00
60817;BME280;51921;51.518;-3.188;2022-11-15T10:49:35;98743.27;;;11.93;100.00
60817;BME280;51921;51.518;-3.188;2022-11-15T10:52:14;98756.35;;;10.50;100.00
60817;BME280;51921;51.518;-3.188;2022-11-15T10:54:30;98763.50;;;11.07;100.00
60817;BME280;51921;51.518;-3.188;2022-11-15T10:56:54;98767.16;;;10.05;100.00
60817;BME280;51921;51.518;-3.188;2022-11-15T10:59:23;98772.08;;;10.69;100.00
60817;BME280;51921;51.518;-3.188;2022-11-15T11:01:47;98772.31;;;9.27;100.00
60817;BME280;51921;51.518;-3.188;2022-11-15T11:04:09;98773.52;;;9.89;100.00
60817;BME280;51921;51.518;-3.188;2022-11-15T11:09:00;98776.13;;;9.24;100.00
60817;BME280;51921;51.518;-3.188;2022-11-15T11:11:24;98773.49;;;9.23;100.00
60817;BME280;51921;51.518;-3.188;2022-11-15T11:13:50;98780.67;;;10.38;100.00
60817;BME280;51921;51.518;-3.188;2022-11-15T11:16:29;98783.14;;;9.36;100.00
60817;BME280;51921;51.518;-3.188;2022-11-15T11:18:46;98782.24;;;9.44;100.00
60817;BME280;51921;51.518;-3.188;2022-11-15T11:21:10;98776.14;;;9.83;100.00
60817;BME280;51921;51.518;-3.188;2022-11-15T11:23:42;98773.75;;;10.25;100.00
60817;BME280;51921;51.518;-3.188;2022-11-15T11:26:05;98779.06;;;10.90;100.00
60817;BME280;51921;51.518;-3.188;2022-11-15T11:28:33;98779.06;;;10.26;100.00
60817;BME280;51921;51.518;-3.188;2022-11-15T11:30:55;98772.52;;;10.66;100.00
60817;BME280;51921;51.518;-3.188;2022-11-15T11:33:17;98771.35;;;10.43;100.00
60817;BME280;51921;51.518;-3.188;2022-11-15T11:35:46;98772.49;;;10.10;100.00
60817;BME280;51921;51.518;-3.188;2022-11-15T11:38:17;98773.30;;;9.84;100.00
60817;BME280;51921;51.518;-3.188;2022-11-15T11:40:32;98771.09;;;10.04;100.00
60817;BME280;51921;51.518;-3.188;2022-11-15T11:42:58;98772.43;;;10.86;100.00
60817;BME280;51921;51.518;-3.188;2022-11-15T11:45:30;98771.81;;;9.89;100.00
60817;BME280;51921;51.518;-3.188;2022-11-15T11:47:48;98778.49;;;10.49;100.00
60817;BME280;51921;51.518;-3.188;2022-11-15T11:50:15;98780.51;;;10.26;100.00
60817;BME280;51921;51.518;-3.188;2022-11-15T11:52:43;98774.66;;;9.98;100.00
60817;BME280;51921;51.518;-3.188;2022-11-15T11:55:10;98770.83;;;9.72;100.00
60817;BME280;51921;51.518;-3.188;2022-11-15T11:57:35;98767.39;;;10.03;100.00
60817;BME280;51921;51.518;-3.188;2022-11-15T11:59:58;98760.85;;;9.64;100.00
60817;BME280;51921;51.518;-3.188;2022-11-15T12:02:26;98757.38;;;9.69;100.00
60817;BME280;51921;51.518;-3.188;2022-11-15T12:04:47;98758.64;;;10.29;100.00
60817;BME280;51921;51.518;-3.188;2022-11-15T12:07:15;98754.91;;;10.37;100.00
60817;BME280;51921;51.518;-3.188;2022-11-15T12:09:39;98755.26;;;10.44;100.00
60817;BME280;51921;51.518;-3.188;2022-11-15T12:12:06;98748.98;;;11.06;100.00
60817;BME280;51921;51.518;-3.188;2022-11-15T12:14:32;98746.75;;;9.53;100.00
60817;BME280;51921;51.518;-3.188;2022-11-15T12:16:51;98747.22;;;10.11;100.00
60817;BME280;51921;51.518;-3.188;2022-11-15T12:19:17;98753.36;;;10.37;100.00
60817;BME280;51921;51.518;-3.188;2022-11-15T12:21:46;98748.81;;;9.55;100.00
60817;BME280;51921;51.518;-3.188;2022-11-15T12:24:13;98754.19;;;9.40;100.00
60817;BME280;51921;51.518;-3.188;2022-11-15T12:26:36;98753.39;;;9.81;100.00
60817;BME280;51921;51.518;-3.188;2022-11-15T12:29:00;98757.18;;;10.38;100.00
60817;BME280;51921;51.518;-3.188;2022-11-15T12:31:29;98758.49;;;10.24;100.00
60817;BME280;51921;51.518;-3.188;2022-11-15T12:33:49;98757.96;;;10.78;100.00
60817;BME280;51921;51.518;-3.188;2022-11-15T12:38:49;98761.40;;;11.00;92.66
60817;BME280;51921;51.518;-3.188;2022-11-15T12:41:14;98757.14;;;10.63;98.22
60817;BME280;51921;51.518;-3.188;2022-11-15T12:43:38;98755.59;;;11.15;91.11
60817;BME280;51921;51.518;-3.188;2022-11-15T12:46:02;98756.56;;;11.16;91.41
60817;BME280;51921;51.518;-3.188;2022-11-15T12:50:53;98757.69;;;9.69;94.59
60817;BME280;51921;51.518;-3.188;2022-11-15T12:53:26;98752.68;;;10.25;95.09